sensor_id;sensor_type;location;lat;lon;timestamp;temperature;humidity
20158;DHT22;10239;56.820;24.416;2022-08-06T00:02:26;23.40;99.90
20158;DHT22;10239;56.820;24.416;2022-08-06T00:04:59;23.40;99.90
20158;DHT22;10239;56.820;24.416;2022-08-06T00:07:27;23.30;99.90
20158;DHT22;10239;56.820;24.416;2022-08-06T00:10:17;23.40;99.90
20158;DHT22;10239;56.820;24.416;2022-08-06T00:12:57;23.40;99.90
20158;DHT22;10239;56.820;24.416;2022-08-06T00:15:31;23.40;99.90
20158;DHT22;10239;56.820;24.416;2022-08-06T00:18:19;23.30;99.90
20158;DHT22;10239;56.820;24.416;2022-08-06T00:20:50;23.30;99.90
20158;DHT22;10239;56.820;24.416;2022-08-06T00:23:19;23.30;99.90
20158;DHT22;10239;56.820;24.416;2022-08-06T00:25:51;23.30;99.90
20158;DHT22;10239;56.820;24.416;2022-08-06T00:28:21;23.30;99.90
20158;DHT22;10239;56.820;24.416;2022-08-06T00:31:03;23.40;99.90
20158;DHT22;10239;56.820;24.416;2022-08-06T00:33:39;23.30;99.90
20158;DHT22;10239;56.820;24.416;2022-08-06T00:36:27;23.30;99.90
20158;DHT22;10239;56.820;24.416;2022-08-06T00:39:03;23.20;99.90
20158;DHT22;10239;56.820;24.416;2022-08-06T00:41:37;23.20;99.90
20158;DHT22;10239;56.820;24.416;2022-08-06T00:44:13;23.10;99.90
20158;DHT22;10239;56.820;24.416;2022-08-06T00:46:59;23.00;99.90
20158;DHT22;10239;56.820;24.416;2022-08-06T00:49:27;23.00;99.90
20158;DHT22;10239;56.820;24.416;2022-08-06T00:52:17;23.20;99.90
20158;DHT22;10239;56.820;24.416;2022-08-06T00:54:53;23.20;99.90
20158;DHT22;10239;56.820;24.416;2022-08-06T00:57:20;23.20;99.90
20158;DHT22;10239;56.820;24.416;2022-08-06T00:59:52;23.10;99.90
20158;DHT22;10239;56.820;24.416;2022-08-06T01:02:20;23.20;99.90
20158;DHT22;10239;56.820;24.416;2022-08-06T01:04:52;23.20;99.90
20158;DHT22;10239;56.820;24.416;2022-08-06T01:07:43;23.30;99.90
20158;DHT22;10239;56.820;24.416;2022-08-06T01:10:18;23.10;99.90
20158;DHT22;10239;56.820;24.416;2022-08-06T01:12:53;23.20;99.90
20158;DHT22;10239;56.820;24.416;2022-08-06T01:15:22;23.20;99.90
20158;DHT22;10239;56.820;24.416;2022-08-06T01:18:25;23.20;99.90
20158;DHT22;10239;56.820;24.416;2022-08-06T01:24:50;23.10;99.90
20158;DHT22;10239;56.820;24.416;2022-08-06T01:30:19;23.00;99.90
20158;DHT22;10239;56.820;24.416;2022-08-06T01:33:01;23.00;99.90
20158;DHT22;10239;56.820;24.416;2022-08-06T01:35:42;22.90;99.90
20158;DHT22;10239;56.820;24.416;2022-08-06T01:38:30;23.00;99.90
20158;DHT22;10239;56.820;24.416;2022-08-06T01:41:05;23.10;99.90
20158;DHT22;10239;56.820;24.416;2022-08-06T01:43:35;23.00;99.90
20158;DHT22;10239;56.820;24.416;2022-08-06T01:46:25;22.90;99.90
20158;DHT22;10239;56.820;24.416;2022-08-06T01:48:55;22.80;99.90
20158;DHT22;10239;56.820;24.416;2022-08-06T01:51:24;22.90;99.90
20158;DHT22;10239;56.820;24.416;2022-08-06T01:54:13;22.80;99.90
20158;DHT22;10239;56.820;24.416;2022-08-06T01:56:49;22.80;99.90
20158;DHT22;10239;56.820;24.416;2022-08-06T01:59:35;22.70;99.90
20158;DHT22;10239;56.820;24.416;2022-08-06T02:02:07;22.70;99.90
20158;DHT22;10239;56.820;24.416;2022-08-06T02:04:38;22.80;99.90
20158;DHT22;10239;56.820;24.416;2022-08-06T02:07:10;22.70;99.90
20158;DHT22;10239;56.820;24.416;2022-08-06T02:10:03;22.70;99.90
20158;DHT22;10239;56.820;24.416;2022-08-06T02:12:33;22.70;99.90
20158;DHT22;10239;56.820;24.416;2022-08-06T02:15:25;22.80;99.90
20158;DHT22;10239;56.820;24.416;2022-08-06T02:18:15;22.80;99.90
20158;DHT22;10239;56.820;24.416;2022-08-06T02:21:10;22.70;99.90
20158;DHT22;10239;56.820;24.416;2022-08-06T02:24:02;22.70;99.90
20158;DHT22;10239;56.820;24.416;2022-08-06T02:26:36;22.60;99.90
20158;DHT22;10239;56.820;24.416;2022-08-06T02:29:14;22.70;99.90
20158;DHT22;10239;56.820;24.416;2022-08-06T02:31:43;22.60;99.90
20158;DHT22;10239;56.820;24.416;2022-08-06T02:34:16;22.70;99.90
20158;DHT22;10239;56.820;24.416;2022-08-06T02:37:18;22.50;99.90
20158;DHT22;10239;56.820;24.416;2022-08-06T02:40:11;22.60;99.90
20158;DHT22;10239;56.820;24.416;2022-08-06T02:42:58;22.60;99.90
20158;DHT22;10239;56.820;24.416;2022-08-06T02:48:30;22.40;99.90
20158;DHT22;10239;56.820;24.416;2022-08-06T02:51:08;22.40;99.90
20158;DHT22;10239;56.820;24.416;2022-08-06T02:54:04;22.40;99.90
20158;DHT22;10239;56.820;24.416;2022-08-06T02:56:37;22.40;99.90
20158;DHT22;10239;56.820;24.416;2022-08-06T02:59:15;22.40;99.90
20158;DHT22;10239;56.820;24.416;2022-08-06T03:01:52;22.60;99.90
20158;DHT22;10239;56.820;24.416;2022-08-06T03:04:23;22.80;99.90
20158;DHT22;10239;56.820;24.416;2022-08-06T03:07:04;22.80;99.90
20158;DHT22;10239;56.820;24.416;2022-08-06T03:09:54;22.90;99.90
20158;DHT22;10239;56.820;24.416;2022-08-06T03:12:23;23.00;99.90
20158;DHT22;10239;56.820;24.416;2022-08-06T03:14:59;23.00;99.90
20158;DHT22;10239;56.820;24.416;2022-08-06T03:17:40;22.90;99.90
20158;DHT22;10239;56.820;24.416;2022-08-06T03:20:15;23.00;99.90
20158;DHT22;10239;56.820;24.416;2022-08-06T03:22:46;23.00;99.90
20158;DHT22;10239;56.820;24.416;2022-08-06T03:25:16;23.00;99.90
20158;DHT22;10239;56.820;24.416;2022-08-06T03:27:51;23.00;99.90
20158;DHT22;10239;56.820;24.416;2022-08-06T03:30:30;23.00;99.90
20158;DHT22;10239;56.820;24.416;2022-08-06T03:33:04;23.10;99.90
20158;DHT22;10239;56.820;24.416;2022-08-06T03:35:51;22.90;99.90
20158;DHT22;10239;56.820;24.416;2022-08-06T03:38:22;22.90;99.90
20158;DHT22;10239;56.820;24.416;2022-08-06T03:40:57;23.00;99.90
20158;DHT22;10239;56.820;24.416;2022-08-06T03:43:28;23.00;99.90
20158;DHT22;10239;56.820;24.416;2022-08-06T03:46:24;23.20;99.90
20158;DHT22;10239;56.820;24.416;2022-08-06T03:48:57;23.30;99.90
20158;DHT22;10239;56.820;24.416;2022-08-06T03:51:27;23.40;99.90
20158;DHT22;10239;56.820;24.416;2022-08-06T03:54:24;23.40;99.90
20158;DHT22;10239;56.820;24.416;2022-08-06T03:57:18;23.30;99.90
20158;DHT22;10239;56.820;24.416;2022-08-06T03:59:57;23.40;99.90
20158;DHT22;10239;56.820;24.416;2022-08-06T04:02:42;23.60;99.90
20158;DHT22;10239;56.820;24.416;2022-08-06T04:05:19;23.30;99.90
20158;DHT22;10239;56.820;24.416;2022-08-06T04:07:59;23.50;99.90
20158;DHT22;10239;56.820;24.416;2022-08-06T04:10:36;23.40;99.90
20158;DHT22;10239;56.820;24.416;2022-08-06T04:13:07;23.50;99.90
20158;DHT22;10239;56.820;24.416;2022-08-06T04:15:56;23.20;99.90
20158;DHT22;10239;56.820;24.416;2022-08-06T04:18:38;23.20;99.90
20158;DHT22;10239;56.820;24.416;2022-08-06T04:21:14;23.40;99.90
20158;DHT22;10239;56.820;24.416;2022-08-06T04:24:05;23.60;99.90
20158;DHT22;10239;56.820;24.416;2022-08-06T04:26:38;23.70;99.90
20158;DHT22;10239;56.820;24.416;2022-08-06T04:29:09;23.80;99.90
20158;DHT22;10239;56.820;24.416;2022-08-06T04:31:39;23.90;99.90
20158;DHT22;10239;56.820;24.416;2022-08-06T04:34:29;24.10;99.90
20158;DHT22;10239;56.820;24.416;2022-08-06T04:36:59;24.00;99.90
20158;DHT22;10239;56.820;24.416;2022-08-06T04:39:31;24.30;99.90
20158;DHT22;10239;56.820;24.416;2022-08-06T04:42:17;24.10;99.90
20158;DHT22;10239;56.820;24.416;2022-08-06T04:44:47;24.30;99.90
20158;DHT22;10239;56.820;24.416;2022-08-06T04:47:29;24.30;99.90
20158;DHT22;10239;56.820;24.416;2022-08-06T04:50:14;24.30;99.90
20158;DHT22;10239;56.820;24.416;2022-08-06T04:52:49;24.40;99.90
20158;DHT22;10239;56.820;24.416;2022-08-06T04:55:19;24.70;99.90
20158;DHT22;10239;56.820;24.416;2022-08-06T04:58:04;25.10;99.90
20158;DHT22;10239;56.820;24.416;2022-08-06T05:00:40;25.30;99.90
20158;DHT22;10239;56.820;24.416;2022-08-06T05:03:29;25.10;99.90
20158;DHT22;10239;56.820;24.416;2022-08-06T05:06:25;25.00;99.90
20158;DHT22;10239;56.820;24.416;2022-08-06T05:08:57;25.20;99.90
20158;DHT22;10239;56.820;24.416;2022-08-06T05:11:39;25.30;99.90
20158;DHT22;10239;56.820;24.416;2022-08-06T05:14:36;25.20;99.90
20158;DHT22;10239;56.820;24.416;2022-08-06T05:17:09;25.70;99.90
20158;DHT22;10239;56.820;24.416;2022-08-06T05:19:50;26.70;99.90
20158;DHT22;10239;56.820;24.416;2022-08-06T05:22:22;28.10;99.90
20158;DHT22;10239;56.820;24.416;2022-08-06T05:25:10;29.20;99.90
20158;DHT22;10239;56.820;24.416;2022-08-06T05:27:48;29.80;99.90
20158;DHT22;10239;56.820;24.416;2022-08-06T05:30:44;30.10;99.90
20158;DHT22;10239;56.820;24.416;2022-08-06T05:33:29;29.70;99.90
20158;DHT22;10239;56.820;24.416;2022-08-06T05:36:07;29.40;99.90
20158;DHT22;10239;56.820;24.416;2022-08-06T05:38:46;29.30;99.90
20158;DHT22;10239;56.820;24.416;2022-08-06T05:41:26;29.90;99.90
20158;DHT22;10239;56.820;24.416;2022-08-06T05:43:59;30.40;99.90
20158;DHT22;10239;56.820;24.416;2022-08-06T05:46:34;30.20;99.90
20158;DHT22;10239;56.820;24.416;2022-08-06T05:49:15;29.40;99.90
20158;DHT22;10239;56.820;24.416;2022-08-06T05:52:17;28.70;99.90
20158;DHT22;10239;56.820;24.416;2022-08-06T05:55:11;28.00;99.90
20158;DHT22;10239;56.820;24.416;2022-08-06T05:57:54;27.40;99.90
20158;DHT22;10239;56.820;24.416;2022-08-06T06:00:28;27.20;99.90
20158;DHT22;10239;56.820;24.416;2022-08-06T06:03:14;28.10;99.90
20158;DHT22;10239;56.820;24.416;2022-08-06T06:05:53;29.60;99.90
20158;DHT22;10239;56.820;24.416;2022-08-06T06:08:43;30.50;99.90
20158;DHT22;10239;56.820;24.416;2022-08-06T06:11:29;31.80;99.90
20158;DHT22;10239;56.820;24.416;2022-08-06T06:22:49;32.90;99.90
20158;DHT22;10239;56.820;24.416;2022-08-06T06:25:29;31.90;99.90
20158;DHT22;10239;56.820;24.416;2022-08-06T06:28:12;31.70;99.90
20158;DHT22;10239;56.820;24.416;2022-08-06T06:34:08;30.40;99.90
20158;DHT22;10239;56.820;24.416;2022-08-06T06:39:36;29.30;99.90
20158;DHT22;10239;56.820;24.416;2022-08-06T06:42:22;28.90;99.90
20158;DHT22;10239;56.820;24.416;2022-08-06T06:45:11;28.50;99.90
20158;DHT22;10239;56.820;24.416;2022-08-06T06:48:13;28.10;99.90
20158;DHT22;10239;56.820;24.416;2022-08-06T06:50:51;27.60;99.90
20158;DHT22;10239;56.820;24.416;2022-08-06T06:53:20;27.30;99.90
20158;DHT22;10239;56.820;24.416;2022-08-06T06:56:11;26.80;99.90
20158;DHT22;10239;56.820;24.416;2022-08-06T06:58:45;26.40;99.90
20158;DHT22;10239;56.820;24.416;2022-08-06T07:01:16;26.30;99.90
20158;DHT22;10239;56.820;24.416;2022-08-06T07:03:56;26.10;99.90
20158;DHT22;10239;56.820;24.416;2022-08-06T07:06:26;26.00;99.90
20158;DHT22;10239;56.820;24.416;2022-08-06T07:09:16;26.00;99.90
20158;DHT22;10239;56.820;24.416;2022-08-06T07:12:05;26.10;99.90
20158;DHT22;10239;56.820;24.416;2022-08-06T07:14:49;26.20;99.90
20158;DHT22;10239;56.820;24.416;2022-08-06T07:17:29;26.40;99.90
20158;DHT22;10239;56.820;24.416;2022-08-06T07:20:18;26.50;99.90
20158;DHT22;10239;56.820;24.416;2022-08-06T07:22:54;26.60;99.90
20158;DHT22;10239;56.820;24.416;2022-08-06T07:25:45;26.90;99.90
20158;DHT22;10239;56.820;24.416;2022-08-06T07:28:23;27.50;99.90
20158;DHT22;10239;56.820;24.416;2022-08-06T07:31:00;28.60;99.90
20158;DHT22;10239;56.820;24.416;2022-08-06T07:33:38;29.80;99.90
20158;DHT22;10239;56.820;24.416;2022-08-06T07:36:29;30.90;99.90
20158;DHT22;10239;56.820;24.416;2022-08-06T07:39:08;31.20;99.90
20158;DHT22;10239;56.820;24.416;2022-08-06T07:41:41;30.40;99.90
20158;DHT22;10239;56.820;24.416;2022-08-06T07:44:33;30.80;99.90
20158;DHT22;10239;56.820;24.416;2022-08-06T07:47:29;32.20;99.90
20158;DHT22;10239;56.820;24.416;2022-08-06T07:50:19;32.30;99.90
20158;DHT22;10239;56.820;24.416;2022-08-06T07:52:52;31.20;99.90
20158;DHT22;10239;56.820;24.416;2022-08-06T07:55:24;30.30;99.90
20158;DHT22;10239;56.820;24.416;2022-08-06T07:58:07;29.60;99.90
20158;DHT22;10239;56.820;24.416;2022-08-06T08:00:36;28.90;99.90
20158;DHT22;10239;56.820;24.416;2022-08-06T08:03:06;28.20;99.90
20158;DHT22;10239;56.820;24.416;2022-08-06T08:06:14;27.10;99.90
20158;DHT22;10239;56.820;24.416;2022-08-06T08:08:54;26.10;99.90
20158;DHT22;10239;56.820;24.416;2022-08-06T08:11:24;25.40;99.90
20158;DHT22;10239;56.820;24.416;2022-08-06T08:14:15;25.00;99.90
20158;DHT22;10239;56.820;24.416;2022-08-06T08:16:46;24.60;99.90
20158;DHT22;10239;56.820;24.416;2022-08-06T08:19:32;24.40;99.90
20158;DHT22;10239;56.820;24.416;2022-08-06T08:22:16;24.20;99.90
20158;DHT22;10239;56.820;24.416;2022-08-06T08:24:50;24.10;99.90
20158;DHT22;10239;56.820;24.416;2022-08-06T08:27:20;24.00;99.90
20158;DHT22;10239;56.820;24.416;2022-08-06T08:29:52;23.80;99.90
20158;DHT22;10239;56.820;24.416;2022-08-06T08:32:25;23.60;99.90
20158;DHT22;10239;56.820;24.416;2022-08-06T08:34:53;23.50;99.90
20158;DHT22;10239;56.820;24.416;2022-08-06T08:37:23;23.50;99.90
20158;DHT22;10239;56.820;24.416;2022-08-06T08:39:51;23.30;99.90
20158;DHT22;10239;56.820;24.416;2022-08-06T08:42:53;23.30;99.90
20158;DHT22;10239;56.820;24.416;2022-08-06T08:45:25;23.20;99.90
20158;DHT22;10239;56.820;24.416;2022-08-06T08:48:01;23.10;99.90
20158;DHT22;10239;56.820;24.416;2022-08-06T08:50:33;22.90;99.90
20158;DHT22;10239;56.820;24.416;2022-08-06T08:53:09;22.70;99.90
20158;DHT22;10239;56.820;24.416;2022-08-06T08:55:42;22.60;99.90
20158;DHT22;10239;56.820;24.416;2022-08-06T08:58:30;22.40;99.90
20158;DHT22;10239;56.820;24.416;2022-08-06T09:01:10;22.30;99.90
20158;DHT22;10239;56.820;24.416;2022-08-06T09:04:00;22.20;99.90
20158;DHT22;10239;56.820;24.416;2022-08-06T09:06:29;22.10;99.90
20158;DHT22;10239;56.820;24.416;2022-08-06T09:09:04;22.00;99.90
20158;DHT22;10239;56.820;24.416;2022-08-06T09:11:34;22.00;99.90
20158;DHT22;10239;56.820;24.416;2022-08-06T09:14:24;22.10;99.90
20158;DHT22;10239;56.820;24.416;2022-08-06T09:17:04;22.20;99.90
20158;DHT22;10239;56.820;24.416;2022-08-06T09:19:38;22.20;99.90
20158;DHT22;10239;56.820;24.416;2022-08-06T09:22:08;22.30;99.90
20158;DHT22;10239;56.820;24.416;2022-08-06T09:24:39;22.20;99.90
20158;DHT22;10239;56.820;24.416;2022-08-06T09:27:12;22.10;99.90
20158;DHT22;10239;56.820;24.416;2022-08-06T09:30:03;22.10;99.90
20158;DHT22;10239;56.820;24.416;2022-08-06T09:32:52;22.10;99.90
20158;DHT22;10239;56.820;24.416;2022-08-06T09:35:26;22.20;99.90
20158;DHT22;10239;56.820;24.416;2022-08-06T09:38:14;22.20;99.90
20158;DHT22;10239;56.820;24.416;2022-08-06T09:41:04;22.40;99.90
20158;DHT22;10239;56.820;24.416;2022-08-06T09:43:36;22.40;99.90
20158;DHT22;10239;56.820;24.416;2022-08-06T09:46:45;22.50;99.90
20158;DHT22;10239;56.820;24.416;2022-08-06T09:49:16;22.60;99.90
20158;DHT22;10239;56.820;24.416;2022-08-06T09:52:15;22.50;99.90
20158;DHT22;10239;56.820;24.416;2022-08-06T09:54:45;22.60;99.90
20158;DHT22;10239;56.820;24.416;2022-08-06T09:57:26;22.60;99.90
20158;DHT22;10239;56.820;24.416;2022-08-06T10:00:04;22.70;99.90
20158;DHT22;10239;56.820;24.416;2022-08-06T10:02:42;22.80;99.90
20158;DHT22;10239;56.820;24.416;2022-08-06T10:05:18;22.80;99.90
20158;DHT22;10239;56.820;24.416;2022-08-06T10:10:48;22.70;99.90
20158;DHT22;10239;56.820;24.416;2022-08-06T10:13:26;22.70;99.90
20158;DHT22;10239;56.820;24.416;2022-08-06T10:16:19;22.50;99.90
20158;DHT22;10239;56.820;24.416;2022-08-06T10:18:56;22.30;99.90
20158;DHT22;10239;56.820;24.416;2022-08-06T10:21:32;22.20;99.90
20158;DHT22;10239;56.820;24.416;2022-08-06T10:24:14;22.10;99.90
20158;DHT22;10239;56.820;24.416;2022-08-06T10:26:53;22.00;99.90
20158;DHT22;10239;56.820;24.416;2022-08-06T10:29:21;21.90;99.90
20158;DHT22;10239;56.820;24.416;2022-08-06T10:31:53;21.60;99.90
20158;DHT22;10239;56.820;24.416;2022-08-06T10:34:26;21.50;99.90
20158;DHT22;10239;56.820;24.416;2022-08-06T10:37:03;21.50;99.90
20158;DHT22;10239;56.820;24.416;2022-08-06T10:39:58;21.40;99.90
20158;DHT22;10239;56.820;24.416;2022-08-06T10:42:38;21.60;99.90
20158;DHT22;10239;56.820;24.416;2022-08-06T10:45:11;21.80;99.90
20158;DHT22;10239;56.820;24.416;2022-08-06T10:47:44;22.20;99.90
20158;DHT22;10239;56.820;24.416;2022-08-06T10:50:33;22.40;99.90
20158;DHT22;10239;56.820;24.416;2022-08-06T10:53:15;22.60;99.90
20158;DHT22;10239;56.820;24.416;2022-08-06T10:56:05;22.90;99.90
20158;DHT22;10239;56.820;24.416;2022-08-06T10:58:36;23.00;99.90
20158;DHT22;10239;56.820;24.416;2022-08-06T11:01:15;23.10;99.90
20158;DHT22;10239;56.820;24.416;2022-08-06T11:09:53;23.30;99.90
20158;DHT22;10239;56.820;24.416;2022-08-06T11:15:35;23.00;99.90
20158;DHT22;10239;56.820;24.416;2022-08-06T11:18:08;23.00;99.90
20158;DHT22;10239;56.820;24.416;2022-08-06T11:20:47;23.10;99.90
20158;DHT22;10239;56.820;24.416;2022-08-06T11:26:06;23.20;99.90
20158;DHT22;10239;56.820;24.416;2022-08-06T11:31:04;23.50;99.90
20158;DHT22;10239;56.820;24.416;2022-08-06T11:33:57;23.60;99.90
20158;DHT22;10239;56.820;24.416;2022-08-06T11:36:27;23.70;99.90
20158;DHT22;10239;56.820;24.416;2022-08-06T11:41:31;23.80;99.90
20158;DHT22;10239;56.820;24.416;2022-08-06T11:44:28;23.90;99.90
20158;DHT22;10239;56.820;24.416;2022-08-06T11:47:16;23.90;99.90
20158;DHT22;10239;56.820;24.416;2022-08-06T11:49:59;24.00;99.90
20158;DHT22;10239;56.820;24.416;2022-08-06T11:55:08;23.80;99.90
20158;DHT22;10239;56.820;24.416;2022-08-06T11:58:15;23.80;99.90
20158;DHT22;10239;56.820;24.416;2022-08-06T12:01:06;23.70;99.90
20158;DHT22;10239;56.820;24.416;2022-08-06T12:03:54;23.60;99.90
20158;DHT22;10239;56.820;24.416;2022-08-06T12:06:23;23.60;99.90
20158;DHT22;10239;56.820;24.416;2022-08-06T12:09:10;23.70;99.90
20158;DHT22;10239;56.820;24.416;2022-08-06T12:11:50;23.70;99.90
20158;DHT22;10239;56.820;24.416;2022-08-06T12:14:41;23.70;99.90
20158;DHT22;10239;56.820;24.416;2022-08-06T12:17:24;23.70;99.90
20158;DHT22;10239;56.820;24.416;2022-08-06T12:20:12;23.60;99.90
20158;DHT22;10239;56.820;24.416;2022-08-06T12:23:04;23.80;99.90
20158;DHT22;10239;56.820;24.416;2022-08-06T12:25:41;23.90;99.90
20158;DHT22;10239;56.820;24.416;2022-08-06T12:28:14;24.00;99.90
20158;DHT22;10239;56.820;24.416;2022-08-06T12:30:51;23.90;99.90
20158;DHT22;10239;56.820;24.416;2022-08-06T12:33:20;23.80;99.90
20158;DHT22;10239;56.820;24.416;2022-08-06T12:35:59;23.60;99.90
20158;DHT22;10239;56.820;24.416;2022-08-06T12:38:31;23.50;99.90
20158;DHT22;10239;56.820;24.416;2022-08-06T12:41:08;23.50;99.90
20158;DHT22;10239;56.820;24.416;2022-08-06T12:43:42;23.50;99.90
20158;DHT22;10239;56.820;24.416;2022-08-06T12:46:24;23.40;99.90
20158;DHT22;10239;56.820;24.416;2022-08-06T12:48:58;23.30;99.90
20158;DHT22;10239;56.820;24.416;2022-08-06T12:51:30;23.20;99.90
20158;DHT22;10239;56.820;24.416;2022-08-06T12:54:07;23.20;99.90
20158;DHT22;10239;56.820;24.416;2022-08-06T12:56:38;23.20;99.90
20158;DHT22;10239;56.820;24.416;2022-08-06T12:59:10;23.10;99.90
20158;DHT22;10239;56.820;24.416;2022-08-06T13:01:51;23.10;99.90
20158;DHT22;10239;56.820;24.416;2022-08-06T13:04:36;23.00;99.90
20158;DHT22;10239;56.820;24.416;2022-08-06T13:07:06;23.00;99.90
20158;DHT22;10239;56.820;24.416;2022-08-06T13:09:42;22.90;99.90
20158;DHT22;10239;56.820;24.416;2022-08-06T13:12:30;22.80;99.90
20158;DHT22;10239;56.820;24.416;2022-08-06T13:15:18;22.70;99.90
20158;DHT22;10239;56.820;24.416;2022-08-06T13:18:12;22.50;99.90
20158;DHT22;10239;56.820;24.416;2022-08-06T13:21:01;22.40;99.90
20158;DHT22;10239;56.820;24.416;2022-08-06T13:23:34;22.40;99.90
20158;DHT22;10239;56.820;24.416;2022-08-06T13:26:28;22.40;99.90
20158;DHT22;10239;56.820;24.416;2022-08-06T13:29:29;22.30;99.90
20158;DHT22;10239;56.820;24.416;2022-08-06T13:32:17;22.30;99.90
20158;DHT22;10239;56.820;24.416;2022-08-06T13:35:05;22.20;99.90
20158;DHT22;10239;56.820;24.416;2022-08-06T13:37:52;22.20;99.90
20158;DHT22;10239;56.820;24.416;2022-08-06T13:40:45;22.10;99.90
20158;DHT22;10239;56.820;24.416;2022-08-06T13:43:41;22.10;99.90
20158;DHT22;10239;56.820;24.416;2022-08-06T13:46:24;21.90;99.90
20158;DHT22;10239;56.820;24.416;2022-08-06T13:49:00;22.00;99.90
20158;DHT22;10239;56.820;24.416;2022-08-06T13:51:41;22.00;99.90
20158;DHT22;10239;56.820;24.416;2022-08-06T13:54:24;22.00;99.90
20158;DHT22;10239;56.820;24.416;2022-08-06T13:56:53;22.10;99.90
20158;DHT22;10239;56.820;24.416;2022-08-06T13:59:25;22.10;99.90
20158;DHT22;10239;56.820;24.416;2022-08-06T14:02:07;22.20;99.90
20158;DHT22;10239;56.820;24.416;2022-08-06T14:04:38;22.20;99.90
20158;DHT22;10239;56.820;24.416;2022-08-06T14:07:07;22.20;99.90
20158;DHT22;10239;56.820;24.416;2022-08-06T14:09:36;22.20;99.90
20158;DHT22;10239;56.820;24.416;2022-08-06T14:12:24;22.20;99.90
20158;DHT22;10239;56.820;24.416;2022-08-06T14:14:56;22.20;99.90
20158;DHT22;10239;56.820;24.416;2022-08-06T14:17:25;22.20;99.90
20158;DHT22;10239;56.820;24.416;2022-08-06T14:20:02;22.20;99.90
20158;DHT22;10239;56.820;24.416;2022-08-06T14:22:46;22.20;99.90
20158;DHT22;10239;56.820;24.416;2022-08-06T14:25:15;22.30;99.90
20158;DHT22;10239;56.820;24.416;2022-08-06T14:27:43;22.30;99.90
20158;DHT22;10239;56.820;24.416;2022-08-06T14:30:13;22.50;99.90
20158;DHT22;10239;56.820;24.416;2022-08-06T14:33:00;22.60;99.90
20158;DHT22;10239;56.820;24.416;2022-08-06T14:35:45;22.70;99.90
20158;DHT22;10239;56.820;24.416;2022-08-06T14:38:21;22.80;99.90
20158;DHT22;10239;56.820;24.416;2022-08-06T14:41:00;23.00;99.90
20158;DHT22;10239;56.820;24.416;2022-08-06T14:44:06;23.00;99.90
20158;DHT22;10239;56.820;24.416;2022-08-06T14:46:52;23.00;99.90
20158;DHT22;10239;56.820;24.416;2022-08-06T14:49:21;23.10;99.90
20158;DHT22;10239;56.820;24.416;2022-08-06T14:51:48;23.30;99.90
20158;DHT22;10239;56.820;24.416;2022-08-06T14:54:36;23.20;99.90
20158;DHT22;10239;56.820;24.416;2022-08-06T14:57:09;23.30;99.90
20158;DHT22;10239;56.820;24.416;2022-08-06T14:59:43;23.20;99.90
20158;DHT22;10239;56.820;24.416;2022-08-06T15:02:21;23.40;99.90
20158;DHT22;10239;56.820;24.416;2022-08-06T15:04:52;23.40;99.90
20158;DHT22;10239;56.820;24.416;2022-08-06T15:07:20;23.50;99.90
20158;DHT22;10239;56.820;24.416;2022-08-06T15:09:52;23.50;99.90
20158;DHT22;10239;56.820;24.416;2022-08-06T15:12:41;23.40;99.90
20158;DHT22;10239;56.820;24.416;2022-08-06T15:15:19;23.30;99.90
20158;DHT22;10239;56.820;24.416;2022-08-06T15:18:02;23.50;99.90
20158;DHT22;10239;56.820;24.416;2022-08-06T15:20:51;23.50;99.90
20158;DHT22;10239;56.820;24.416;2022-08-06T15:23:18;23.50;99.90
20158;DHT22;10239;56.820;24.416;2022-08-06T15:25:46;23.60;99.90
20158;DHT22;10239;56.820;24.416;2022-08-06T15:28:34;23.60;99.90
20158;DHT22;10239;56.820;24.416;2022-08-06T15:31:03;23.70;99.90
20158;DHT22;10239;56.820;24.416;2022-08-06T15:33:33;23.70;99.90
20158;DHT22;10239;56.820;24.416;2022-08-06T15:36:02;23.70;99.90
20158;DHT22;10239;56.820;24.416;2022-08-06T15:38:30;23.50;99.90
20158;DHT22;10239;56.820;24.416;2022-08-06T15:40:59;23.50;99.90
20158;DHT22;10239;56.820;24.416;2022-08-06T15:43:28;23.40;99.90
20158;DHT22;10239;56.820;24.416;2022-08-06T15:46:16;23.30;99.90
20158;DHT22;10239;56.820;24.416;2022-08-06T15:48:56;23.20;99.90
20158;DHT22;10239;56.820;24.416;2022-08-06T15:51:26;23.10;99.90
20158;DHT22;10239;56.820;24.416;2022-08-06T15:53:59;23.10;99.90
20158;DHT22;10239;56.820;24.416;2022-08-06T15:56:28;23.00;99.90
20158;DHT22;10239;56.820;24.416;2022-08-06T15:59:17;22.90;99.90
20158;DHT22;10239;56.820;24.416;2022-08-06T16:01:47;22.90;99.90
20158;DHT22;10239;56.820;24.416;2022-08-06T16:04:31;22.80;99.90
20158;DHT22;10239;56.820;24.416;2022-08-06T16:07:06;22.70;99.90
20158;DHT22;10239;56.820;24.416;2022-08-06T16:09:35;22.60;99.90
20158;DHT22;10239;56.820;24.416;2022-08-06T16:12:25;22.50;99.90
20158;DHT22;10239;56.820;24.416;2022-08-06T16:14:53;22.50;99.90
20158;DHT22;10239;56.820;24.416;2022-08-06T16:17:25;22.30;99.90
20158;DHT22;10239;56.820;24.416;2022-08-06T16:20:15;22.20;99.90
20158;DHT22;10239;56.820;24.416;2022-08-06T16:22:52;22.20;99.90
20158;DHT22;10239;56.820;24.416;2022-08-06T16:25:20;22.20;99.90
20158;DHT22;10239;56.820;24.416;2022-08-06T16:27:50;22.10;99.90
20158;DHT22;10239;56.820;24.416;2022-08-06T16:30:19;22.00;99.90
20158;DHT22;10239;56.820;24.416;2022-08-06T16:32:48;22.00;99.90
20158;DHT22;10239;56.820;24.416;2022-08-06T16:35:17;22.00;99.90
20158;DHT22;10239;56.820;24.416;2022-08-06T16:37:51;22.00;99.90
20158;DHT22;10239;56.820;24.416;2022-08-06T16:40:23;21.90;99.90
20158;DHT22;10239;56.820;24.416;2022-08-06T16:42:53;21.90;99.90
20158;DHT22;10239;56.820;24.416;2022-08-06T16:45:23;21.80;99.90
20158;DHT22;10239;56.820;24.416;2022-08-06T16:48:05;21.80;99.90
20158;DHT22;10239;56.820;24.416;2022-08-06T16:50:52;21.80;99.90
20158;DHT22;10239;56.820;24.416;2022-08-06T16:53:28;21.70;99.90
20158;DHT22;10239;56.820;24.416;2022-08-06T16:56:16;21.60;99.90
20158;DHT22;10239;56.820;24.416;2022-08-06T16:58:44;21.60;99.90
20158;DHT22;10239;56.820;24.416;2022-08-06T17:01:19;21.60;99.90
20158;DHT22;10239;56.820;24.416;2022-08-06T17:04:07;21.70;99.90
20158;DHT22;10239;56.820;24.416;2022-08-06T17:06:51;21.70;99.90
20158;DHT22;10239;56.820;24.416;2022-08-06T17:09:18;21.70;99.90
20158;DHT22;10239;56.820;24.416;2022-08-06T17:11:47;21.60;99.90
20158;DHT22;10239;56.820;24.416;2022-08-06T17:14:28;21.60;99.90
20158;DHT22;10239;56.820;24.416;2022-08-06T17:17:02;21.60;99.90